Portada
METAR-TAF:

METAR-TAF

Aeropuertos :

Stewart, Columbia Británica, Canadá

latitud: 55-56N, longitud: 129-59W, altitud: 7 m

Observación

El informe se hizo hace 5 horas y 11 minutos, a las 01:00 UTC
Viento 7 kt del sur-suroeste, variando entre sur y oeste-suroeste
Temperatura 17°C
Humedad 68%
Presión 1019 hPa
Visibilidad: 24.1 km
Escasas nubes a una altura de 6000 ft
Cielo nuboso a una altura de 7500 ft

METAR: CZST 230100Z 21007KT 170V250 15SM FEW060 BKN075 17/11 A3009 RMK SC2AC4 LAST STFD OBS/NEXT 231300Z/ SLP191 DENSITY ALT 100FT

Hora: 23:11 (06:11 UTC)


TAF: falta

Observaciones y pronósticos meteorológicos de más de 4000 aeropuertos (mensajes METAR y TAF).

Los puntos amarillos y rojos representan las estaciones disponibles.

Ponga el ratón en el punto deseado para ver el nombre de la estación.

Haga clic para ver las observaciones y los pronósticos meteorológicos.

Para cambiar el mapa : haga clic en los botones verdes con una cruz de color negro para hacer un zoom, en el botón verde con un guión para alejar o en las flechas verdes para mapas adyacentes.


METAR-TAF: